Time;durP1;ratioP1;P1;durP2;ratioP2;P2;SDS_P1;SDS_P2;PMS_P1;PMS_P2;Temp;Humidity;BMP_temperature;BMP_pressure;BME280_temperature;BME280_humidity;BME280_pressure;Samples;Min_cycle;Max_cycle;Signal;HPM_P1;HPM_P2
2023/10/19 00:00:21;;;;;;;3.10;1.30;;;;;;;30.10;29.90;100985.22;5074070;28;20048;-47
2023/10/19 00:02:52;;;;;;;4.03;1.40;;;;;;;29.90;29.52;100984.00;5073903;28;20032;-48
2023/10/19 00:05:19;;;;;;;3.67;1.17;;;;;;;29.90;29.85;100982.06;5074086;28;20032;-47
2023/10/19 00:07:46;;;;;;;4.88;1.23;;;;;;;29.94;30.20;100977.50;5073810;28;20029;-48
2023/10/19 00:10:16;;;;;;;4.72;1.13;;;;;;;29.91;29.94;100977.34;5071650;28;20059;-47
2023/10/19 00:12:43;;;;;;;9.30;1.83;;;;;;;29.88;30.32;100975.28;5067492;28;20029;-49
2023/10/19 00:15:12;;;;;;;3.83;1.40;;;;;;;29.89;30.28;100980.44;5073050;28;20040;-47
2023/10/19 00:17:39;;;;;;;4.65;1.40;;;;;;;29.73;31.00;100975.84;5053411;28;20098;-47
2023/10/19 00:22:52;;;;;;;4.57;1.77;;;;;;;29.65;31.58;100978.31;5054059;28;20040;-47
2023/10/19 00:25:18;;;;;;;3.25;1.27;;;;;;;29.70;30.85;100975.34;5053662;28;20045;-47
2023/10/19 00:27:45;;;;;;;3.88;1.58;;;;;;;29.48;31.37;100978.31;5057358;28;20016;-49
2023/10/19 00:30:12;;;;;;;4.65;1.30;;;;;;;29.46;31.72;100980.63;5073594;28;20027;-48
2023/10/19 00:32:38;;;;;;;5.28;1.63;;;;;;;29.30;32.39;100982.28;5073505;28;20105;-47
2023/10/19 00:35:26;;;;;;;8.27;1.92;;;;;;;29.07;32.69;100984.44;5073116;28;20027;-49
2023/10/19 00:37:55;;;;;;;3.60;1.50;;;;;;;29.43;32.04;100984.03;5072901;28;20109;-49
2023/10/19 00:40:34;;;;;;;7.78;2.35;;;;;;;29.08;32.33;100986.88;5073438;28;20025;-47
2023/10/19 00:43:10;;;;;;;5.72;2.00;;;;;;;28.90;32.66;100985.25;5072089;28;20049;-50
2023/10/19 00:45:39;;;;;;;7.22;2.50;;;;;;;28.85;32.48;100980.72;5073324;28;20029;-47
2023/10/19 00:48:11;;;;;;;3.78;1.48;;;;;;;29.17;32.56;100976.66;5072884;28;20020;-47
2023/10/19 00:50:38;;;;;;;5.55;1.90;;;;;;;28.93;32.32;100977.19;5073094;28;20031;-47
2023/10/19 00:53:08;;;;;;;3.53;1.38;;;;;;;28.82;32.42;100975.06;5076273;28;20028;-47
2023/10/19 00:55:36;;;;;;;4.95;2.00;;;;;;;28.92;32.92;100974.72;5083894;28;20035;-48
2023/10/19 00:58:09;;;;;;;6.20;2.13;;;;;;;28.89;33.30;100972.63;5072576;28;20043;-50
2023/10/19 01:00:43;;;;;;;5.88;2.22;;;;;;;28.78;34.21;100971.34;5071861;28;20035;-47
2023/10/19 01:03:16;;;;;;;3.50;1.58;;;;;;;28.72;33.02;100976.22;5071996;28;20106;-50
2023/10/19 01:05:48;;;;;;;6.77;1.60;;;;;;;28.76;33.53;100976.34;5072725;28;20039;-49
2023/10/19 01:08:23;;;;;;;6.47;1.88;;;;;;;28.53;33.14;100981.22;5063990;28;20063;-48
2023/10/19 01:10:52;;;;;;;3.63;1.63;;;;;;;28.63;33.32;100981.72;5067028;28;20031;-48
2023/10/19 01:13:26;;;;;;;2.83;1.50;;;;;;;28.54;33.46;100978.16;5072508;28;20569;-48
2023/10/19 01:15:54;;;;;;;2.85;1.50;;;;;;;28.61;33.71;100975.72;5072085;28;20029;-52
2023/10/19 01:18:21;;;;;;;2.90;1.50;;;;;;;28.44;33.85;100985.94;5072336;28;20032;-47
2023/10/19 01:20:50;;;;;;;2.13;1.30;;;;;;;28.25;34.73;100975.19;5069096;28;20051;-52
2023/10/19 01:23:35;;;;;;;3.78;1.85;;;;;;;28.18;35.42;100983.91;5061351;28;20029;-51
2023/10/19 01:26:11;;;;;;;2.40;1.48;;;;;;;28.03;36.57;100976.91;5072544;28;20029;-52
2023/10/19 01:33:55;;;;;;;4.53;1.70;;;;;;;27.59;37.46;100973.19;5072136;28;20499;-54
2023/10/19 01:36:26;;;;;;;3.13;1.50;;;;;;;27.50;38.17;100971.53;5072166;28;20047;-52
2023/10/19 01:39:00;;;;;;;2.50;1.67;;;;;;;27.38;38.50;100976.81;5072817;28;20078;-52
2023/10/19 01:41:30;;;;;;;5.57;1.70;;;;;;;27.27;39.32;100971.59;5072487;28;20028;-52
2023/10/19 01:44:04;;;;;;;2.35;1.75;;;;;;;27.17;39.11;100980.09;5071092;28;20052;-54
2023/10/19 01:46:36;;;;;;;2.03;1.35;;;;;;;26.96;39.65;100979.75;5072681;28;20130;-53
2023/10/19 01:49:04;;;;;;;2.83;1.73;;;;;;;26.81;40.31;100982.88;5072393;28;20112;-50
2023/10/19 01:51:33;;;;;;;3.03;1.80;;;;;;;26.71;40.69;100981.22;5071413;28;20028;-52
2023/10/19 01:54:03;;;;;;;3.25;1.58;;;;;;;26.73;41.44;100978.16;5055850;28;20963;-53
2023/10/19 01:56:29;;;;;;;2.72;1.77;;;;;;;26.47;41.30;100986.16;5051657;28;20108;-54
2023/10/19 01:58:57;;;;;;;3.30;1.67;;;;;;;26.40;41.89;100991.22;5062459;28;20102;-52
2023/10/19 02:04:15;;;;;;;3.80;2.03;;;;;;;26.26;41.95;100992.09;5071892;28;20166;-53
2023/10/19 02:06:41;;;;;;;5.68;1.83;;;;;;;25.88;42.97;100991.50;5071705;28;20063;-54
2023/10/19 02:09:14;;;;;;;3.10;1.90;;;;;;;25.80;43.66;100995.75;5069875;28;20032;-53
2023/10/19 02:11:45;;;;;;;4.28;2.33;;;;;;;25.53;43.46;100996.50;5052767;28;20480;-54
2023/10/19 02:14:15;;;;;;;5.75;3.05;;;;;;;25.46;43.55;100998.84;5072064;28;20064;-53
2023/10/19 02:16:52;;;;;;;5.50;3.58;;;;;;;25.29;43.67;101001.34;5072138;28;20028;-53
2023/10/19 02:19:22;;;;;;;8.40;2.78;;;;;;;25.33;43.11;100996.91;5078051;28;20085;-53
2023/10/19 02:21:56;;;;;;;3.55;2.58;;;;;;;25.11;43.32;101002.22;5072097;28;20024;-52
2023/10/19 02:24:23;;;;;;;3.63;2.30;;;;;;;25.21;43.36;101000.13;5071876;28;20028;-51
2023/10/19 02:26:55;;;;;;;5.15;2.40;;;;;;;24.90;43.82;101004.44;5072444;28;20032;-50
2023/10/19 02:29:22;;;;;;;3.50;2.17;;;;;;;24.76;44.77;101009.84;5068603;28;20024;-51
2023/10/19 02:31:49;;;;;;;10.15;2.67;;;;;;;24.70;45.50;101003.63;5077890;28;20031;-52
2023/10/19 02:34:16;;;;;;;4.93;2.65;;;;;;;24.57;46.67;101018.06;5083406;28;20051;-51
2023/10/19 02:36:44;;;;;;;4.03;2.45;;;;;;;24.38;46.46;101004.38;5055169;28;20029;-51
2023/10/19 02:39:13;;;;;;;12.23;5.30;;;;;;;24.39;46.24;101014.22;5066167;28;20031;-52
2023/10/19 02:41:44;;;;;;;10.60;4.20;;;;;;;24.06;47.18;101010.50;5055516;28;20024;-50
2023/10/19 11:54:55;;;;;;;4.25;2.92;;;;;;;15.70;82.94;101170.47;5129265;27;20455;-47
2023/10/19 11:57:23;;;;;;;5.38;3.15;;;;;;;15.86;81.28;101168.16;5104012;27;20040;-50
2023/10/19 11:59:52;;;;;;;4.55;3.20;;;;;;;15.86;82.03;101163.59;5089699;28;20386;-47
2023/10/19 12:02:21;;;;;;;3.38;3.08;;;;;;;15.97;81.50;101176.28;5090027;28;20385;-46
2023/10/19 12:04:48;;;;;;;4.65;3.40;;;;;;;15.97;81.04;101170.88;5089339;28;20103;-47
2023/10/19 12:07:14;;;;;;;3.47;3.05;;;;;;;16.08;79.08;101175.47;5089245;28;20024;-47
2023/10/19 12:09:44;;;;;;;4.43;2.97;;;;;;;16.13;77.54;101174.75;5089052;28;20384;-47
2023/10/19 12:12:11;;;;;;;5.63;2.85;;;;;;;16.13;76.60;101173.94;5088811;28;20024;-48
2023/10/19 12:14:37;;;;;;;5.20;3.08;;;;;;;16.05;77.22;101175.94;5089115;28;20385;-47
2023/10/19 12:17:06;;;;;;;7.82;3.17;;;;;;;16.11;77.71;101168.78;5089046;28;20078;-48
2023/10/19 12:19:32;;;;;;;4.57;3.00;;;;;;;16.06;77.65;101172.19;5088817;28;20059;-47
2023/10/19 12:22:00;;;;;;;5.13;3.05;;;;;;;15.87;77.70;101164.41;5088811;28;20028;-48
2023/10/19 12:24:29;;;;;;;6.13;3.22;;;;;;;15.88;77.82;101166.03;5088915;28;20473;-48
2023/10/19 12:26:56;;;;;;;7.05;3.33;;;;;;;15.67;78.29;101153.94;5101171;28;20062;-47
2023/10/19 12:29:22;;;;;;;4.13;3.47;;;;;;;15.82;77.74;101157.00;5109080;28;20023;-49
2023/10/19 12:31:48;;;;;;;4.65;3.25;;;;;;;15.71;77.99;101161.34;5108956;28;20052;-45
2023/10/19 12:34:16;;;;;;;5.30;3.58;;;;;;;15.75;78.17;101167.09;5108762;28;20036;-46
2023/10/19 12:36:46;;;;;;;9.80;3.35;;;;;;;15.75;77.97;101167.91;5109055;28;20032;-49
2023/10/19 12:39:35;;;;;;;5.47;3.53;;;;;;;15.65;78.36;101172.22;5101060;28;20025;-50
2023/10/19 12:41:58;;;;;;;8.73;3.60;;;;;;;15.71;78.26;101164.06;5108643;28;20089;-47
2023/10/19 12:44:25;;;;;;;4.00;2.95;;;;;;;15.82;77.58;101165.94;5108415;28;20020;-47
2023/10/19 12:46:52;;;;;;;5.30;3.00;;;;;;;15.94;77.31;101165.97;5106927;28;20488;-48
2023/10/19 12:49:25;;;;;;;5.20;3.50;;;;;;;15.93;77.07;101168.88;5104325;28;20093;-48
2023/10/19 12:51:52;;;;;;;7.97;3.65;;;;;;;15.96;76.87;101171.13;5107707;28;20088;-47
2023/10/19 12:54:18;;;;;;;6.60;3.28;;;;;;;16.02;76.71;101179.09;5103219;28;20040;-47
2023/10/19 12:56:49;;;;;;;5.63;3.95;;;;;;;15.97;77.10;101173.56;5094210;28;20031;-47
2023/10/19 12:59:17;;;;;;;8.57;3.75;;;;;;;15.99;76.81;101173.34;5095213;28;20118;-49
2023/10/19 13:01:48;;;;;;;7.35;3.63;;;;;;;16.02;76.85;101172.88;5094677;28;20521;-47
2023/10/19 13:04:18;;;;;;;4.57;3.00;;;;;;;15.92;77.62;101184.25;5086085;28;20028;-46
2023/10/19 13:06:47;;;;;;;5.25;3.28;;;;;;;15.90;77.74;101188.25;5093891;28;20060;-48
2023/10/19 13:09:15;;;;;;;5.60;3.20;;;;;;;15.76;78.29;101190.31;5094696;28;20080;-51
2023/10/19 13:11:45;;;;;;;5.72;3.40;;;;;;;15.82;78.25;101189.38;5094574;28;20047;-53
2023/10/19 13:14:12;;;;;;;3.75;2.97;;;;;;;15.88;78.01;101195.75;5094345;28;20028;-47
2023/10/19 13:16:38;;;;;;;5.15;3.40;;;;;;;15.84;78.45;101198.91;5094591;28;20485;-47
2023/10/19 13:19:46;;;;;;;5.32;3.20;;;;;;;15.96;78.08;101204.34;5094751;28;20032;-48
2023/10/19 13:21:54;;;;;;;6.72;3.50;;;;;;;16.05;77.68;101204.81;5088692;28;20043;-48
2023/10/19 13:24:20;;;;;;;8.55;3.55;;;;;;;16.05;77.87;101208.34;5094305;28;20029;-47
2023/10/19 13:26:48;;;;;;;4.35;3.15;;;;;;;16.00;77.79;101216.31;5094383;28;20120;-46
2023/10/19 13:29:15;;;;;;;6.95;3.78;;;;;;;15.88;78.16;101212.78;5093625;28;20101;-47
2023/10/19 13:31:48;;;;;;;5.35;3.65;;;;;;;15.90;78.30;101213.38;5091588;28;20110;-48
2023/10/19 13:34:18;;;;;;;6.65;3.30;;;;;;;15.84;78.50;101204.31;5093104;28;20169;-47
2023/10/19 13:36:46;;;;;;;4.85;3.30;;;;;;;15.81;78.63;101209.34;5092958;28;20020;-46
2023/10/19 13:39:18;;;;;;;4.85;3.17;;;;;;;15.79;78.86;101200.66;5094257;28;20032;-48
2023/10/19 13:41:44;;;;;;;7.15;3.10;;;;;;;15.91;78.46;101209.59;5094210;28;20060;-46
2023/10/19 13:44:11;;;;;;;5.22;3.75;;;;;;;15.75;79.28;101208.41;5092701;28;20028;-46
2023/10/19 13:46:37;;;;;;;5.78;3.70;;;;;;;15.76;79.18;101201.13;5091521;28;20040;-49
2023/10/19 13:49:05;;;;;;;7.78;3.53;;;;;;;15.65;79.76;101210.00;5092057;28;20099;-46
2023/10/19 13:51:31;;;;;;;6.88;3.83;;;;;;;15.55;80.35;101210.56;5092095;28;20028;-46
2023/10/19 13:53:59;;;;;;;7.43;3.78;;;;;;;15.62;80.00;101207.75;5091712;28;20063;-45
2023/10/19 13:56:26;;;;;;;9.27;4.05;;;;;;;15.69;79.78;101211.19;5089549;28;20483;-47
2023/10/19 13:58:52;;;;;;;5.22;3.78;;;;;;;15.49;80.85;101206.91;5093730;28;20107;-45
2023/10/19 14:01:20;;;;;;;8.18;5.13;;;;;;;15.44;81.16;101212.16;5093343;28;20108;-46
2023/10/19 14:03:46;;;;;;;4.45;4.00;;;;;;;15.58;80.71;101212.78;5086644;28;20489;-48
2023/10/19 14:06:14;;;;;;;5.82;4.60;;;;;;;15.76;79.52;101217.31;5088994;28;20028;-48
2023/10/19 14:08:40;;;;;;;9.30;5.22;;;;;;;15.92;79.29;101213.94;5088823;28;20061;-48
2023/10/19 14:11:07;;;;;;;6.47;4.93;;;;;;;15.88;78.86;101220.88;5091152;28;20036;-48
2023/10/19 14:13:35;;;;;;;6.38;4.82;;;;;;;15.76;79.51;101217.31;5092276;28;20036;-48
2023/10/19 14:16:06;;;;;;;5.40;4.90;;;;;;;15.78;79.22;101217.91;5091042;28;20027;-47
2023/10/19 14:18:32;;;;;;;6.20;4.30;;;;;;;15.79;79.06;101223.09;5091228;28;20024;-50
2023/10/19 14:20:58;;;;;;;6.75;4.50;;;;;;;15.75;79.07;101231.88;5086243;28;20048;-48
2023/10/19 14:23:27;;;;;;;6.22;4.78;;;;;;;15.68;79.33;101225.75;5083123;28;20043;-48
2023/10/19 14:25:53;;;;;;;6.32;4.72;;;;;;;15.77;78.63;101219.81;5090159;28;20070;-51
2023/10/19 14:28:19;;;;;;;6.88;4.25;;;;;;;15.73;78.70;101224.00;5083269;28;20032;-50
2023/10/19 14:30:45;;;;;;;7.88;4.80;;;;;;;15.81;78.47;101226.34;5071338;28;20371;-49
2023/10/19 14:33:12;;;;;;;7.72;4.68;;;;;;;15.70;78.47;101226.34;5083703;28;20552;-47
2023/10/19 14:35:41;;;;;;;5.80;4.30;;;;;;;15.72;78.45;101226.94;5071265;28;20036;-48
2023/10/19 14:38:09;;;;;;;10.48;4.93;;;;;;;15.84;78.11;101225.91;5089162;28;20081;-47
2023/10/19 14:40:35;;;;;;;5.85;4.15;;;;;;;15.69;78.59;101233.59;5085300;28;20090;-50
2023/10/19 14:43:03;;;;;;;13.90;4.10;;;;;;;15.69;79.46;101236.31;5083971;28;20473;-49
2023/10/19 14:45:29;;;;;;;10.50;4.57;;;;;;;15.99;79.75;101230.88;5091069;28;20469;-47
2023/10/19 14:48:04;;;;;;;6.32;3.47;;;;;;;15.90;81.05;101228.75;5085196;28;20024;-50
2023/10/19 14:50:30;;;;;;;6.03;3.85;;;;;;;15.91;81.31;101244.69;5084249;28;20035;-46
2023/10/19 14:52:57;;;;;;;6.40;3.92;;;;;;;15.86;81.45;101235.66;5092595;28;20073;-46
2023/10/19 14:55:24;;;;;;;4.85;3.92;;;;;;;16.06;80.85;101247.78;5082905;28;20036;-50
2023/10/19 14:57:55;;;;;;;7.75;4.22;;;;;;;15.94;81.73;101240.72;5072345;28;20024;-46
2023/10/19 15:00:32;;;;;;;11.85;4.78;;;;;;;15.95;82.09;101239.66;5072296;28;20078;-49
2023/10/19 15:03:00;;;;;;;16.02;4.97;;;;;;;16.03;81.83;101239.31;5072659;28;20627;-47
2023/10/19 15:05:33;;;;;;;33.05;6.97;;;;;;;15.96;82.58;101246.72;5072071;28;20020;-50
2023/10/19 15:08:02;;;;;;;34.40;6.38;;;;;;;16.06;82.49;101246.97;5072315;28;20020;-47
2023/10/19 15:10:28;;;;;;;7.95;4.03;;;;;;;16.23;82.06;101245.22;5072053;28;20044;-50
2023/10/19 15:12:56;;;;;;;9.25;4.18;;;;;;;16.30;83.63;101255.91;5072487;28;20025;-46
2023/10/19 15:15:23;;;;;;;8.88;4.78;;;;;;;16.42;84.61;101256.75;5071814;28;20031;-47
2023/10/19 15:17:52;;;;;;;9.13;3.88;;;;;;;16.64;85.36;101257.78;5072035;28;20024;-47
2023/10/19 15:20:21;;;;;;;12.55;4.28;;;;;;;16.70;85.55;101258.72;5072049;28;20153;-48
2023/10/19 15:22:48;;;;;;;37.53;7.15;;;;;;;16.85;85.23;101263.69;5071971;28;20394;-50
2023/10/19 15:25:18;;;;;;;8.23;4.50;;;;;;;16.94;83.54;101267.69;5071801;28;20165;-46
2023/10/19 15:27:45;;;;;;;5.97;4.28;;;;;;;17.04;83.60;101259.75;5072262;28;20611;-50
2023/10/19 15:30:12;;;;;;;9.23;4.97;;;;;;;17.15;81.95;101264.31;5079361;28;20024;-47
2023/10/19 15:32:42;;;;;;;8.70;4.53;;;;;;;17.09;81.28;101273.38;5087756;28;20067;-47
2023/10/19 15:35:11;;;;;;;7.97;4.25;;;;;;;17.23;80.26;101275.84;5091578;28;20016;-48
2023/10/19 15:37:38;;;;;;;12.88;4.95;;;;;;;17.18;81.03;101273.03;5087603;28;20491;-48
2023/10/19 15:40:05;;;;;;;10.38;4.85;;;;;;;17.31;82.02;101278.97;5085528;28;20065;-47
2023/10/19 15:42:34;;;;;;;9.63;5.25;;;;;;;17.25;82.78;101273.72;5081606;28;20072;-46
2023/10/19 15:45:01;;;;;;;7.50;4.35;;;;;;;17.39;82.35;101275.91;5088205;28;20389;-45
2023/10/19 15:47:27;;;;;;;11.02;5.10;;;;;;;17.49;82.42;101274.44;5088339;28;20469;-46
2023/10/19 15:49:58;;;;;;;8.68;4.25;;;;;;;17.73;80.72;101281.47;5083123;28;20106;-46
2023/10/19 15:52:28;;;;;;;6.10;4.53;;;;;;;17.68;80.42;101286.75;5091612;28;20374;-45
2023/10/19 15:54:55;;;;;;;12.57;5.25;;;;;;;17.84;79.92;101291.41;5091199;28;20394;-46
2023/10/19 15:57:21;;;;;;;6.53;4.32;;;;;;;18.01;78.72;101286.03;5091761;28;20031;-47
2023/10/19 15:59:48;;;;;;;11.07;4.63;;;;;;;18.13;76.25;101285.94;5091590;28;20017;-47
2023/10/19 16:02:15;;;;;;;7.30;4.40;;;;;;;18.33;75.99;101289.00;5091776;28;20027;-44
2023/10/19 16:04:42;;;;;;;10.57;4.95;;;;;;;18.37;75.54;101290.13;5091542;28;20028;-49
2023/10/19 16:07:10;;;;;;;6.30;4.53;;;;;;;18.47;75.21;101293.00;5091938;28;20465;-45
2023/10/19 16:09:37;;;;;;;7.70;4.55;;;;;;;18.70;74.47;101296.63;5091155;28;20028;-48
2023/10/19 16:12:03;;;;;;;9.93;5.15;;;;;;;18.85;73.75;101294.13;5091611;28;20028;-44
2023/10/19 16:14:30;;;;;;;11.10;5.20;;;;;;;19.07;75.20;101293.34;5091672;28;20444;-45
2023/10/19 16:16:56;;;;;;;11.32;5.80;;;;;;;19.18;76.26;101295.13;5091495;28;20028;-49
2023/10/19 16:19:25;;;;;;;11.65;5.57;;;;;;;19.24;76.61;101291.38;5091577;28;20024;-47
2023/10/19 16:21:52;;;;;;;11.60;5.53;;;;;;;19.57;75.78;101282.28;5091380;28;20021;-45
2023/10/19 16:24:19;;;;;;;9.77;4.80;;;;;;;19.77;74.37;101285.25;5082587;28;20027;-45
2023/10/19 16:26:45;;;;;;;12.88;4.80;;;;;;;19.93;73.91;101288.09;5090940;28;20024;-45
2023/10/19 16:29:15;;;;;;;9.45;4.30;;;;;;;20.03;72.72;101290.91;5091796;28;20020;-44
2023/10/19 16:31:43;;;;;;;10.25;4.75;;;;;;;20.28;72.61;101285.69;5095404;28;20036;-45
2023/10/19 16:34:13;;;;;;;11.55;4.30;;;;;;;20.47;71.54;101288.03;5094936;28;20066;-47
2023/10/19 16:36:40;;;;;;;8.43;4.15;;;;;;;20.51;70.51;101286.44;5095170;28;20507;-46
2023/10/19 16:39:08;;;;;;;10.18;4.65;;;;;;;20.60;70.14;101295.75;5095470;28;20024;-46
2023/10/19 16:41:37;;;;;;;9.98;4.45;;;;;;;20.81;69.43;101297.50;5094799;28;20034;-45
2023/10/19 16:44:07;;;;;;;8.10;4.53;;;;;;;20.91;69.23;101304.09;5094789;28;20028;-46
2023/10/19 16:46:36;;;;;;;9.25;4.35;;;;;;;21.00;68.42;101300.63;5094918;28;20032;-46
2023/10/19 16:49:03;;;;;;;8.15;4.57;;;;;;;20.99;68.68;101301.69;5090675;28;20024;-45
2023/10/19 16:51:31;;;;;;;8.70;4.47;;;;;;;21.06;68.55;101307.72;5094873;28;20024;-46
2023/10/19 16:53:57;;;;;;;10.52;4.07;;;;;;;21.28;67.11;101309.47;5094677;28;20102;-44
2023/10/19 16:56:24;;;;;;;8.15;4.30;;;;;;;21.57;66.15;101310.66;5094897;28;20152;-49
2023/10/19 16:58:50;;;;;;;7.13;4.18;;;;;;;21.71;65.00;101312.88;5095438;28;20035;-45
2023/10/19 17:01:17;;;;;;;9.13;5.00;;;;;;;21.84;65.31;101302.28;5094866;28;20606;-45
2023/10/19 17:03:44;;;;;;;10.60;3.88;;;;;;;22.06;62.85;101303.97;5094690;28;20031;-46
2023/10/19 17:06:11;;;;;;;7.78;4.32;;;;;;;22.23;61.79;101296.34;5094810;28;20093;-49
2023/10/19 17:08:39;;;;;;;10.10;5.10;;;;;;;22.74;57.38;101288.09;5094861;28;20474;-48
2023/10/19 17:11:05;;;;;;;10.38;4.20;;;;;;;23.16;54.29;101295.13;5094800;28;20020;-47
2023/10/19 17:13:32;;;;;;;12.95;5.50;;;;;;;23.58;49.13;101291.91;5094475;28;20062;-47
2023/10/19 17:15:59;;;;;;;8.90;4.88;;;;;;;24.06;46.62;101302.28;5094682;28;20035;-44
2023/10/19 17:18:26;;;;;;;10.20;4.85;;;;;;;24.38;45.92;101294.38;5094955;28;20024;-45
2023/10/19 17:20:53;;;;;;;11.07;5.30;;;;;;;24.68;44.67;101293.25;5094655;28;20067;-45
2023/10/19 17:23:19;;;;;;;10.48;5.22;;;;;;;24.90;43.42;101295.50;5082753;28;20078;-46
2023/10/19 17:25:49;;;;;;;11.52;5.15;;;;;;;25.11;43.00;101295.28;5073545;28;20124;-47
2023/10/19 17:28:16;;;;;;;12.65;5.22;;;;;;;25.54;43.00;101291.44;5074081;28;20040;-44
2023/10/19 17:30:42;;;;;;;16.90;4.80;;;;;;;25.60;41.09;101286.69;5073954;28;20033;-44
2023/10/19 17:33:08;;;;;;;11.10;5.28;;;;;;;25.80;40.87;101296.56;5074025;28;20020;-43
2023/10/19 17:35:37;;;;;;;8.85;4.65;;;;;;;25.93;40.19;101295.84;5073629;28;20024;-47
2023/10/19 17:38:05;;;;;;;17.10;5.45;;;;;;;26.27;39.39;101286.50;5073640;28;20545;-45
2023/10/19 17:40:31;;;;;;;10.95;4.50;;;;;;;26.16;39.79;101296.03;5073434;28;20478;-45
2023/10/19 17:42:57;;;;;;;15.25;4.72;;;;;;;26.20;39.38;101288.81;5073616;28;20385;-44
2023/10/19 17:45:24;;;;;;;11.32;4.50;;;;;;;26.45;38.97;101285.66;5073743;28;20036;-45
2023/10/19 17:47:51;;;;;;;8.52;4.38;;;;;;;26.54;39.23;101283.00;5073851;28;20032;-45
2023/10/19 17:50:19;;;;;;;8.65;4.65;;;;;;;26.81;38.20;101279.47;5073920;28;20044;-45
2023/10/19 17:52:49;;;;;;;6.18;3.80;;;;;;;26.89;38.54;101277.97;5073154;28;20383;-46
2023/10/19 17:55:20;;;;;;;9.85;4.43;;;;;;;27.14;38.05;101279.41;5073676;28;20032;-44
2023/10/19 17:57:50;;;;;;;8.52;4.07;;;;;;;27.18;37.78;101275.75;5073475;28;20472;-47
2023/10/19 18:00:19;;;;;;;11.20;4.72;;;;;;;27.21;37.35;101279.81;5073362;28;20031;-45
2023/10/19 18:02:46;;;;;;;10.77;4.85;;;;;;;27.19;37.04;101276.56;5073143;28;20037;-47
2023/10/19 18:05:14;;;;;;;11.18;4.43;;;;;;;27.42;37.11;101272.75;5073069;28;20024;-49
2023/10/19 18:07:40;;;;;;;9.40;4.40;;;;;;;27.65;37.24;101268.09;5073661;28;20478;-46
2023/10/19 18:10:08;;;;;;;11.02;4.72;;;;;;;27.69;36.05;101266.34;5073210;28;20161;-48
2023/10/19 18:12:35;;;;;;;9.45;3.92;;;;;;;27.77;35.80;101268.41;5072974;28;20107;-45
2023/10/19 18:15:01;;;;;;;12.88;4.70;;;;;;;27.74;35.57;101262.72;5072741;28;20028;-46
2023/10/19 18:17:27;;;;;;;11.15;4.70;;;;;;;27.94;35.20;101270.47;5072718;28;20056;-46
2023/10/19 18:19:54;;;;;;;7.95;4.15;;;;;;;27.96;35.35;101270.16;5073097;28;20474;-45
2023/10/19 18:22:20;;;;;;;8.38;3.80;;;;;;;28.06;34.46;101273.47;5072924;28;20383;-50
2023/10/19 18:24:47;;;;;;;15.15;5.20;;;;;;;28.24;35.63;101268.88;5072529;28;20071;-46
2023/10/19 18:27:15;;;;;;;9.30;4.63;;;;;;;28.12;34.20;101265.91;5072727;28;20027;-45
2023/10/19 18:29:43;;;;;;;6.97;4.10;;;;;;;28.23;34.55;101270.00;5072956;28;20058;-50
2023/10/19 18:32:11;;;;;;;9.43;4.30;;;;;;;28.31;34.19;101271.19;5072605;28;20172;-46
2023/10/19 18:34:37;;;;;;;15.68;4.65;;;;;;;28.47;33.01;101272.44;5072287;28;20040;-45
2023/10/19 18:37:05;;;;;;;8.23;4.50;;;;;;;28.39;34.22;101267.72;5072629;28;20016;-45
2023/10/19 18:39:32;;;;;;;7.68;4.78;;;;;;;28.44;33.45;101264.81;5072492;28;20030;-45
2023/10/19 18:41:58;;;;;;;8.93;5.05;;;;;;;28.59;33.27;101269.91;5072568;28;20059;-46
2023/10/19 18:44:24;;;;;;;13.35;4.85;;;;;;;28.63;32.65;101265.38;5072271;28;20029;-45
2023/10/19 18:46:50;;;;;;;10.40;5.10;;;;;;;28.64;32.76;101261.50;5072272;28;20450;-48
2023/10/19 18:49:17;;;;;;;12.25;5.43;;;;;;;28.89;32.49;101257.22;5072491;28;20067;-45
2023/10/19 18:51:43;;;;;;;9.50;5.72;;;;;;;28.96;32.60;101259.53;5072176;28;20020;-47
2023/10/19 18:54:09;;;;;;;11.65;5.75;;;;;;;29.07;31.69;101254.53;5071515;28;20490;-48
2023/10/19 18:56:37;;;;;;;8.70;5.40;;;;;;;29.10;31.97;101251.16;5072177;28;20430;-45
2023/10/19 18:59:03;;;;;;;9.55;5.97;;;;;;;29.12;32.17;101251.63;5072189;28;20020;-45
2023/10/19 19:01:30;;;;;;;11.73;6.05;;;;;;;29.15;31.33;101260.09;5072159;28;20028;-45
2023/10/19 19:03:56;;;;;;;10.27;5.55;;;;;;;29.10;31.29;101260.25;5072022;28;20040;-47
2023/10/19 19:06:22;;;;;;;11.02;6.03;;;;;;;29.32;31.27;101244.72;5072032;28;20028;-49
2023/10/19 19:08:49;;;;;;;11.88;6.05;;;;;;;29.33;31.36;101238.88;5071912;28;20024;-48
2023/10/19 19:11:20;;;;;;;13.07;6.35;;;;;;;29.52;31.04;101246.81;5072053;28;20028;-45
2023/10/19 19:13:47;;;;;;;8.88;5.78;;;;;;;29.50;30.70;101243.59;5071815;28;20028;-45
2023/10/19 19:16:13;;;;;;;10.18;5.57;;;;;;;29.59;30.21;101241.66;5071947;28;20032;-49
2023/10/19 19:18:40;;;;;;;9.80;5.97;;;;;;;29.64;30.37;101246.19;5071575;28;20016;-48
2023/10/19 19:21:08;;;;;;;9.98;5.47;;;;;;;29.77;29.95;101241.66;5071992;28;20140;-46
2023/10/19 19:23:39;;;;;;;9.02;5.45;;;;;;;29.94;29.71;101241.63;5071539;28;20747;-46
2023/10/19 19:26:06;;;;;;;8.20;5.40;;;;;;;29.95;29.76;101232.22;5072007;28;20027;-49
2023/10/19 19:28:32;;;;;;;8.00;5.00;;;;;;;30.32;29.99;101240.94;5071827;28;20020;-48
2023/10/19 19:31:00;;;;;;;10.10;5.45;;;;;;;30.18;28.94;101222.59;5072014;28;20025;-47
2023/10/19 19:33:30;;;;;;;8.32;5.32;;;;;;;30.21;29.52;101224.72;5071437;28;20032;-46
2023/10/19 19:35:56;;;;;;;10.30;5.22;;;;;;;30.15;29.28;101228.81;5071661;28;20298;-47
2023/10/19 19:38:24;;;;;;;9.82;5.15;;;;;;;30.33;28.89;101217.69;5071666;28;20032;-46
2023/10/19 19:40:52;;;;;;;10.60;5.47;;;;;;;30.18;29.41;101202.47;5071806;28;20024;-46
2023/10/19 19:43:19;;;;;;;8.07;5.47;;;;;;;30.39;28.53;101202.56;5071337;28;20043;-47
2023/10/19 19:45:45;;;;;;;14.50;5.47;;;;;;;30.49;28.23;101196.69;5071361;28;20025;-50
2023/10/19 19:48:11;;;;;;;9.38;5.07;;;;;;;30.64;28.67;101187.78;5135722;23;20054;-47
2023/10/19 19:50:42;;;;;;;8.98;5.80;;;;;;;30.51;28.17;101194.38;5132632;28;20062;-47
2023/10/19 19:53:09;;;;;;;12.70;5.93;;;;;;;30.59;28.03;101182.47;5132632;28;20019;-47
2023/10/19 19:55:37;;;;;;;10.60;5.05;;;;;;;30.83;27.82;101190.19;5132576;28;20029;-47
2023/10/19 19:58:03;;;;;;;9.52;6.00;;;;;;;30.71;28.12;101181.81;5132813;28;20033;-47
2023/10/19 20:00:32;;;;;;;8.85;5.43;;;;;;;30.77;27.86;101183.22;5132686;28;20107;-50
2023/10/19 20:02:59;;;;;;;9.52;5.82;;;;;;;30.85;27.76;101168.53;5132509;28;20031;-51
2023/10/19 20:05:32;;;;;;;11.68;5.43;;;;;;;30.84;27.99;101168.88;5134724;27;20023;-47
2023/10/19 20:08:02;;;;;;;9.57;5.43;;;;;;;31.23;27.57;101159.31;5136734;27;20400;-48
2023/10/19 20:10:42;;;;;;;8.80;4.90;;;;;;;31.15;27.22;101151.88;5136766;27;20038;-48
2023/10/19 20:13:16;;;;;;;12.25;5.68;;;;;;;31.30;26.52;101156.03;5136264;27;20034;-46
2023/10/19 20:15:43;;;;;;;9.33;5.30;;;;;;;31.26;26.87;101140.13;5136489;27;20080;-49
2023/10/19 20:18:10;;;;;;;7.68;5.70;;;;;;;31.41;26.85;101137.88;5106150;27;20426;-50
2023/10/19 20:20:37;;;;;;;11.98;6.10;;;;;;;31.39;26.42;101148.47;5095389;28;20475;-47
2023/10/19 20:23:04;;;;;;;9.90;5.90;;;;;;;31.43;26.02;101139.16;5095181;28;20082;-48
2023/10/19 20:25:30;;;;;;;8.45;5.50;;;;;;;31.60;26.04;101124.34;5095524;28;20074;-47
2023/10/19 20:28:04;;;;;;;10.27;5.82;;;;;;;31.68;25.55;101120.66;5095200;28;20020;-46
2023/10/19 20:30:33;;;;;;;9.03;6.40;;;;;;;31.87;25.67;101124.88;5095460;28;20024;-48
2023/10/19 20:32:59;;;;;;;14.88;6.82;;;;;;;31.74;25.32;101110.97;5095119;28;20337;-46
2023/10/19 20:35:26;;;;;;;9.13;6.15;;;;;;;31.56;25.78;101108.75;5094972;28;20024;-50
2023/10/19 20:37:53;;;;;;;11.57;6.22;;;;;;;31.83;25.39;101099.84;5094928;28;20026;-49
2023/10/19 20:40:22;;;;;;;7.72;6.25;;;;;;;31.76;25.55;101100.41;5095026;28;20462;-49
2023/10/19 20:42:57;;;;;;;9.48;6.50;;;;;;;31.86;25.13;101092.81;5095183;28;20055;-48
2023/10/19 20:45:25;;;;;;;10.10;6.00;;;;;;;31.99;24.86;101091.69;5095074;28;20028;-50
2023/10/19 20:47:55;;;;;;;9.30;6.40;;;;;;;31.96;24.92;101086.81;5094790;28;20052;-47
2023/10/19 20:50:22;;;;;;;12.75;7.03;;;;;;;32.03;24.89;101092.59;5094713;28;20458;-46